Time;durP1;ratioP1;P1;durP2;ratioP2;P2;SDS_P1;SDS_P2;PMS_P1;PMS_P2;Temp;Humidity;BMP_temperature;BMP_pressure;BME280_temperature;BME280_humidity;BME280_pressure;Samples;Min_cycle;Max_cycle;Signal;HPM_P1;HPM_P2
2023/06/25 00:00:56;;;;;;;0.35;0.35;;;17.80;99.90;;;;;;5092641;28;20051;-63
2023/06/25 00:03:22;;;;;;;0.35;0.35;;;18.00;99.90;;;;;;5093686;28;20059;-63
2023/06/25 00:05:48;;;;;;;0.30;0.30;;;17.70;99.90;;;;;;5093813;28;20063;-63
2023/06/25 00:08:13;;;;;;;0.22;0.22;;;17.70;99.90;;;;;;5093672;28;20068;-63
2023/06/25 00:10:39;;;;;;;0.70;0.20;;;17.70;99.90;;;;;;5093626;28;20044;-63
2023/06/25 00:13:05;;;;;;;0.38;0.38;;;17.80;99.90;;;;;;5093527;28;20400;-63
2023/06/25 00:15:30;;;;;;;0.40;0.30;;;17.70;99.90;;;;;;5093487;28;20040;-63
2023/06/25 00:17:56;;;;;;;0.28;0.20;;;17.80;99.90;;;;;;5093274;28;20131;-63
2023/06/25 00:20:25;;;;;;;0.10;0.10;;;17.90;99.90;;;;;;5093584;28;20120;-62
2023/06/25 00:22:51;;;;;;;0.20;0.20;;;17.60;99.90;;;;;;5093456;28;20517;-63
2023/06/25 00:25:17;;;;;;;0.20;0.20;;;17.50;99.90;;;;;;5093248;28;20211;-63
2023/06/25 00:27:47;;;;;;;0.45;0.45;;;17.60;99.90;;;;;;5093319;28;20040;-63
2023/06/25 00:30:14;;;;;;;0.40;0.35;;;17.60;99.90;;;;;;5093263;28;20067;-63
2023/06/25 00:32:41;;;;;;;0.80;0.80;;;17.60;99.90;;;;;;5093324;28;20113;-63
2023/06/25 00:35:08;;;;;;;0.30;0.30;;;17.80;99.90;;;;;;5093443;28;20062;-63
2023/06/25 00:37:36;;;;;;;0.20;0.20;;;17.70;99.90;;;;;;5093239;28;20131;-62
2023/06/25 00:40:04;;;;;;;1.02;0.47;;;17.80;99.90;;;;;;5093074;28;20048;-62
2023/06/25 00:42:42;;;;;;;0.30;0.30;;;17.50;99.90;;;;;;5093070;28;20099;-63
2023/06/25 00:45:12;;;;;;;0.25;0.25;;;18.00;99.90;;;;;;5092814;28;20141;-63
2023/06/25 00:47:41;;;;;;;1.40;1.25;;;17.80;99.90;;;;;;5093003;28;20036;-63
2023/06/25 00:50:12;;;;;;;0.35;0.32;;;17.30;99.90;;;;;;5092859;28;20073;-63
2023/06/25 00:52:39;;;;;;;0.25;0.25;;;17.80;99.90;;;;;;5092859;28;20058;-62
2023/06/25 00:55:08;;;;;;;0.20;0.20;;;17.50;99.90;;;;;;5092616;28;20147;-63
2023/06/25 00:57:37;;;;;;;0.20;0.20;;;17.80;99.90;;;;;;5091501;28;20410;-63
2023/06/25 01:00:05;;;;;;;0.10;0.10;;;17.20;99.90;;;;;;5091400;28;20475;-63
2023/06/25 01:02:43;;;;;;;0.63;0.32;;;17.50;99.90;;;;;;5092687;28;20072;-63
2023/06/25 01:05:39;;;;;;;0.47;0.47;;;17.10;99.90;;;;;;5091026;28;20420;-62
2023/06/25 01:08:08;;;;;;;0.20;0.20;;;17.30;99.90;;;;;;5092323;28;20135;-63
2023/06/25 01:10:35;;;;;;;0.40;0.40;;;17.00;99.90;;;;;;5092674;28;20054;-63
2023/06/25 01:13:02;;;;;;;0.55;0.55;;;17.20;99.90;;;;;;5092104;28;20126;-63
2023/06/25 01:15:27;;;;;;;0.28;0.28;;;17.10;99.90;;;;;;5092376;28;20047;-62
2023/06/25 01:17:53;;;;;;;0.75;0.75;;;17.40;99.90;;;;;;5092205;28;20055;-63
2023/06/25 01:20:21;;;;;;;0.32;0.32;;;17.50;99.90;;;;;;5092106;28;20484;-63
2023/06/25 01:22:48;;;;;;;0.30;0.30;;;17.20;99.90;;;;;;5092070;28;20083;-62
2023/06/25 01:25:14;;;;;;;0.10;0.10;;;17.30;99.90;;;;;;5092191;28;20127;-63
2023/06/25 01:27:40;;;;;;;0.52;0.52;;;17.10;99.90;;;;;;5092252;28;20136;-63
2023/06/25 01:30:07;;;;;;;1.70;0.80;;;17.40;99.90;;;;;;5092308;28;20044;-62
2023/06/25 01:32:33;;;;;;;0.57;0.57;;;17.80;99.90;;;;;;5092014;28;20565;-62
2023/06/25 01:34:59;;;;;;;0.30;0.30;;;17.40;99.90;;;;;;5091948;28;20083;-62
2023/06/25 01:37:24;;;;;;;0.38;0.38;;;17.60;99.90;;;;;;5091996;28;20040;-63
2023/06/25 01:39:54;;;;;;;0.45;0.43;;;17.20;99.90;;;;;;5092173;28;20044;-62
2023/06/25 01:42:20;;;;;;;0.38;0.38;;;17.80;99.90;;;;;;5092000;28;20074;-63
2023/06/25 01:44:45;;;;;;;0.70;0.68;;;17.50;99.90;;;;;;5091784;28;20595;-62
2023/06/25 01:47:11;;;;;;;0.77;0.73;;;17.40;99.90;;;;;;5091767;28;20044;-62
2023/06/25 01:49:37;;;;;;;1.17;1.00;;;17.70;99.90;;;;;;5073370;28;20077;-62
2023/06/25 01:52:03;;;;;;;0.77;0.77;;;17.80;99.90;;;;;;5091545;28;20048;-63
2023/06/25 01:54:29;;;;;;;1.33;0.93;;;17.90;99.90;;;;;;5091657;28;20582;-62
2023/06/25 01:56:56;;;;;;;2.35;0.40;;;17.80;99.90;;;;;;5091579;28;20044;-62
2023/06/25 01:59:21;;;;;;;0.50;0.50;;;17.60;99.90;;;;;;5091544;28;20472;-62
2023/06/25 02:01:47;;;;;;;0.70;0.70;;;17.30;99.90;;;;;;5091432;28;20116;-62
2023/06/25 02:04:13;;;;;;;1.60;0.73;;;17.80;99.90;;;;;;5091168;28;20064;-62
2023/06/25 02:06:38;;;;;;;0.57;0.47;;;17.50;99.90;;;;;;5091244;28;20075;-63
2023/06/25 02:09:04;;;;;;;0.52;0.52;;;17.70;99.90;;;;;;5091518;28;20055;-63
2023/06/25 02:11:30;;;;;;;1.08;0.95;;;17.30;99.90;;;;;;5091402;28;20479;-62
2023/06/25 02:13:55;;;;;;;0.55;0.55;;;17.50;99.90;;;;;;5091196;28;20051;-62
2023/06/25 02:16:21;;;;;;;0.47;0.47;;;17.40;99.90;;;;;;5091316;28;20079;-63
2023/06/25 02:18:47;;;;;;;0.60;0.60;;;17.40;99.90;;;;;;5091210;28;20048;-63
2023/06/25 02:21:13;;;;;;;0.57;0.57;;;17.40;99.90;;;;;;5091436;28;20506;-62
2023/06/25 02:23:39;;;;;;;0.47;0.47;;;17.30;99.90;;;;;;5090678;28;20724;-63
2023/06/25 02:26:04;;;;;;;0.32;0.32;;;18.20;99.90;;;;;;5091282;28;20044;-63
2023/06/25 02:28:30;;;;;;;1.13;1.02;;;16.90;99.90;;;;;;5091385;28;20395;-63
2023/06/25 02:30:56;;;;;;;1.08;0.85;;;17.20;99.90;;;;;;5091196;28;20044;-62
2023/06/25 02:33:22;;;;;;;1.48;0.77;;;17.40;99.90;;;;;;5091115;28;20466;-63
2023/06/25 02:35:47;;;;;;;1.00;0.65;;;17.10;99.90;;;;;;5090971;28;20130;-62
2023/06/25 02:38:13;;;;;;;0.20;0.20;;;17.40;99.90;;;;;;5091152;28;20110;-62
2023/06/25 02:40:39;;;;;;;1.73;0.93;;;17.40;99.90;;;;;;5091130;28;20055;-62
2023/06/25 02:43:04;;;;;;;0.57;0.55;;;16.80;99.90;;;;;;5091037;28;20128;-63
2023/06/25 02:45:30;;;;;;;0.40;0.40;;;17.10;99.90;;;;;;5090930;28;20585;-62
2023/06/25 02:47:56;;;;;;;0.55;0.55;;;16.80;99.90;;;;;;5090820;28;20058;-62
2023/06/25 02:50:21;;;;;;;1.50;0.60;;;16.90;99.90;;;;;;5090854;28;20433;-62
2023/06/25 02:52:47;;;;;;;0.65;0.50;;;17.10;99.90;;;;;;5091110;28;20044;-62
2023/06/25 02:55:13;;;;;;;0.30;0.30;;;16.90;99.90;;;;;;5091047;28;20480;-63
2023/06/25 02:57:39;;;;;;;1.40;0.63;;;17.10;99.90;;;;;;5090854;28;20066;-62
2023/06/25 03:00:05;;;;;;;0.40;0.40;;;17.20;99.90;;;;;;5090876;28;20055;-63
2023/06/25 03:02:31;;;;;;;1.15;0.90;;;17.00;99.90;;;;;;5090799;28;20059;-62
2023/06/25 03:04:57;;;;;;;0.80;0.73;;;16.60;99.90;;;;;;5090584;28;20052;-62
2023/06/25 03:07:22;;;;;;;1.65;0.70;;;17.10;99.90;;;;;;5090830;28;20511;-63
2023/06/25 03:09:48;;;;;;;0.75;0.75;;;16.50;99.90;;;;;;5090864;28;20139;-62
2023/06/25 03:12:14;;;;;;;0.70;0.70;;;16.90;99.90;;;;;;5090802;28;20036;-62
2023/06/25 03:14:41;;;;;;;0.55;0.52;;;17.20;99.90;;;;;;5090884;28;20036;-62
2023/06/25 03:17:07;;;;;;;0.47;0.43;;;16.70;99.90;;;;;;5090946;28;20447;-62
2023/06/25 03:19:33;;;;;;;0.40;0.40;;;17.30;99.90;;;;;;5090654;28;20044;-62
2023/06/25 03:21:59;;;;;;;0.20;0.20;;;17.10;99.90;;;;;;5090793;28;20369;-62
2023/06/25 03:24:25;;;;;;;0.82;0.82;;;17.00;99.90;;;;;;5090765;28;20055;-62
2023/06/25 03:26:51;;;;;;;0.82;0.82;;;17.20;99.90;;;;;;5090686;28;20051;-63
2023/06/25 03:29:17;;;;;;;0.52;0.52;;;17.10;99.90;;;;;;5090560;28;20415;-62
2023/06/25 03:31:43;;;;;;;0.52;0.52;;;17.10;99.90;;;;;;5090429;28;20048;-62
2023/06/25 03:34:09;;;;;;;0.47;0.47;;;16.80;99.90;;;;;;5090856;28;20515;-62
2023/06/25 03:36:35;;;;;;;0.50;0.40;;;16.80;99.90;;;;;;5094407;28;20090;-63
2023/06/25 03:39:00;;;;;;;0.77;0.77;;;16.80;99.90;;;;;;5094257;28;20498;-62
2023/06/25 03:41:26;;;;;;;1.85;0.88;;;16.50;99.90;;;;;;5094162;28;20100;-62
2023/06/25 03:43:52;;;;;;;0.75;0.70;;;16.80;99.90;;;;;;5094029;28;20054;-63
2023/06/25 03:46:18;;;;;;;0.52;0.52;;;16.50;99.90;;;;;;5093906;28;20050;-63
2023/06/25 03:48:44;;;;;;;0.75;0.50;;;17.10;99.90;;;;;;5093844;28;20507;-62
2023/06/25 03:51:10;;;;;;;0.80;0.80;;;16.50;99.90;;;;;;5093913;28;20509;-62
2023/06/25 03:53:38;;;;;;;0.77;0.77;;;16.70;99.90;;;;;;5094002;28;20136;-62
2023/06/25 03:56:04;;;;;;;1.35;0.65;;;16.60;99.90;;;;;;5093912;28;20044;-62
2023/06/25 03:58:30;;;;;;;1.20;1.10;;;17.20;99.90;;;;;;5093775;28;20105;-62
2023/06/25 04:00:56;;;;;;;4.20;0.93;;;16.30;99.90;;;;;;5093810;28;20055;-62
2023/06/25 04:03:21;;;;;;;1.67;1.58;;;16.60;99.90;;;;;;5093658;28;20051;-62
2023/06/25 04:05:48;;;;;;;1.63;1.25;;;16.90;99.90;;;;;;5093817;28;20055;-62
2023/06/25 04:08:14;;;;;;;0.55;0.55;;;17.00;99.90;;;;;;5093834;28;20074;-63
2023/06/25 04:10:43;;;;;;;0.60;0.60;;;16.70;99.90;;;;;;5093679;28;20483;-62
2023/06/25 04:13:09;;;;;;;2.33;0.73;;;16.80;99.90;;;;;;5093601;28;20047;-62
2023/06/25 04:15:34;;;;;;;1.80;0.95;;;16.80;99.90;;;;;;5093489;28;20448;-62
2023/06/25 04:18:00;;;;;;;;;;;16.80;99.90;;;;;;5094111;28;20044;-62
2023/06/25 04:20:27;;;;;;;1.20;1.20;;;17.10;99.90;;;;;;5093776;28;19993;-62
2023/06/25 04:22:54;;;;;;;3.30;1.13;;;17.30;99.90;;;;;;5093715;28;20051;-62
2023/06/25 04:25:20;;;;;;;0.40;0.40;;;17.40;99.90;;;;;;5092117;28;20059;-63
2023/06/25 04:27:46;;;;;;;0.30;0.30;;;16.90;99.90;;;;;;5093366;28;20044;-62
2023/06/25 04:30:12;;;;;;;0.85;0.85;;;17.30;99.90;;;;;;5093122;28;20511;-62
2023/06/25 04:32:37;;;;;;;0.50;0.50;;;17.50;99.90;;;;;;5093639;28;20043;-63
2023/06/25 04:35:04;;;;;;;0.30;0.30;;;17.40;99.90;;;;;;5093323;28;20115;-63
2023/06/25 04:37:29;;;;;;;0.90;0.90;;;17.50;99.90;;;;;;5093134;28;20517;-62
2023/06/25 04:39:55;;;;;;;;;;;17.40;99.90;;;;;;5093421;28;20091;-62
2023/06/25 04:42:20;;;;;;;0.65;0.52;;;17.80;99.90;;;;;;5093003;28;19931;-63
2023/06/25 04:44:46;;;;;;;0.17;0.17;;;18.00;99.90;;;;;;5091428;28;20530;-63
2023/06/25 04:47:12;;;;;;;0.88;0.88;;;17.50;99.90;;;;;;5092449;28;20047;-62
2023/06/25 04:49:38;;;;;;;0.50;0.50;;;17.80;99.90;;;;;;5093023;28;20044;-62
2023/06/25 04:52:04;;;;;;;0.40;0.40;;;17.70;99.90;;;;;;5092849;28;20051;-63
2023/06/25 04:54:29;;;;;;;0.88;0.75;;;17.90;99.90;;;;;;5092728;28;20495;-62
2023/06/25 04:56:55;;;;;;;1.02;0.88;;;18.00;99.90;;;;;;5092915;28;20048;-62
2023/06/25 04:59:21;;;;;;;2.13;0.90;;;18.00;99.90;;;;;;5092904;28;20059;-63
2023/06/25 05:01:46;;;;;;;1.17;0.90;;;18.30;99.90;;;;;;5092892;28;20135;-62
2023/06/25 05:04:12;;;;;;;0.60;0.60;;;18.40;99.90;;;;;;5092548;28;20399;-63
2023/06/25 05:06:38;;;;;;;0.50;0.50;;;18.50;99.90;;;;;;5092340;28;20484;-62
2023/06/25 05:09:03;;;;;;;2.65;0.95;;;18.30;99.90;;;;;;5092547;28;20051;-62
2023/06/25 05:11:29;;;;;;;0.63;0.63;;;18.70;99.90;;;;;;5092497;28;20103;-63
2023/06/25 05:13:55;;;;;;;0.95;0.88;;;18.60;99.90;;;;;;5092319;28;20122;-62
2023/06/25 05:16:20;;;;;;;0.60;0.60;;;18.90;99.90;;;;;;5092438;28;20535;-62
2023/06/25 05:18:46;;;;;;;0.70;0.50;;;18.70;99.90;;;;;;5092505;28;20050;-63
2023/06/25 05:21:12;;;;;;;2.42;2.22;;;18.60;99.90;;;;;;5092259;28;20104;-62
2023/06/25 05:23:42;;;;;;;0.32;0.32;;;18.80;99.90;;;;;;5092287;28;20075;-62
2023/06/25 05:26:08;;;;;;;0.88;0.88;;;18.60;99.90;;;;;;5092082;28;20077;-63
2023/06/25 05:28:33;;;;;;;0.47;0.47;;;19.10;99.90;;;;;;5092043;28;20127;-63
2023/06/25 05:30:59;;;;;;;1.65;0.90;;;19.30;99.90;;;;;;5091943;28;20048;-63
2023/06/25 05:33:25;;;;;;;0.63;0.63;;;19.10;99.90;;;;;;5092153;28;20094;-63
2023/06/25 05:35:50;;;;;;;0.50;0.50;;;19.40;99.90;;;;;;5092011;28;20040;-63
2023/06/25 05:38:16;;;;;;;1.00;0.77;;;19.30;99.90;;;;;;5091978;28;20067;-63
2023/06/25 05:40:42;;;;;;;0.40;0.40;;;19.40;99.90;;;;;;5091906;28;20514;-62
2023/06/25 05:43:08;;;;;;;0.90;0.90;;;19.80;99.90;;;;;;5091723;28;20092;-62
2023/06/25 05:45:33;;;;;;;0.90;0.90;;;19.60;99.90;;;;;;5091901;28;20132;-63
2023/06/25 05:47:59;;;;;;;0.70;0.70;;;19.70;99.90;;;;;;5090483;28;20052;-63
2023/06/25 05:50:25;;;;;;;0.73;0.73;;;20.10;99.90;;;;;;5091626;28;20044;-62
2023/06/25 05:52:51;;;;;;;0.32;0.32;;;19.80;99.90;;;;;;5091687;28;20047;-62
2023/06/25 05:55:17;;;;;;;0.85;0.52;;;19.90;99.90;;;;;;5091678;28;20048;-62
2023/06/25 05:57:43;;;;;;;0.68;0.68;;;20.10;99.90;;;;;;5090830;28;20050;-63
2023/06/25 06:00:09;;;;;;;1.52;0.88;;;19.90;99.90;;;;;;5091404;28;20132;-63
2023/06/25 06:02:34;;;;;;;0.57;0.57;;;20.00;99.90;;;;;;5091659;28;20066;-63
2023/06/25 06:05:00;;;;;;;2.75;0.63;;;20.00;99.90;;;;;;5091239;28;20097;-62
2023/06/25 06:07:26;;;;;;;0.32;0.32;;;20.40;99.90;;;;;;5091490;28;20101;-63
2023/06/25 06:09:51;;;;;;;0.75;0.75;;;20.40;99.90;;;;;;5091433;28;20044;-63
2023/06/25 06:12:17;;;;;;;0.50;0.50;;;20.60;99.90;;;;;;5091310;28;20060;-63
2023/06/25 06:14:43;;;;;;;0.32;0.32;;;20.50;99.90;;;;;;5091360;28;20048;-63
2023/06/25 06:17:09;;;;;;;0.20;0.20;;;21.00;99.90;;;;;;5091781;28;20051;-62
2023/06/25 06:19:35;;;;;;;1.17;1.08;;;20.90;99.90;;;;;;5091478;28;20047;-63
2023/06/25 06:22:01;;;;;;;1.25;1.20;;;21.00;99.90;;;;;;5091377;28;20442;-63
2023/06/25 06:24:27;;;;;;;0.30;0.30;;;21.00;99.90;;;;;;5091210;28;20048;-62
2023/06/25 06:26:53;;;;;;;0.50;0.43;;;21.10;99.90;;;;;;5091182;28;20054;-64
2023/06/25 06:29:19;;;;;;;0.35;0.30;;;21.10;99.90;;;;;;5091080;28;20051;-63
2023/06/25 06:31:45;;;;;;;0.57;0.52;;;21.10;99.90;;;;;;5091360;28;20048;-63
2023/06/25 06:34:11;;;;;;;0.47;0.25;;;21.50;99.90;;;;;;5091346;28;20457;-62
2023/06/25 06:36:37;;;;;;;0.20;0.20;;;21.40;99.90;;;;;;5091453;28;20122;-63
2023/06/25 06:39:02;;;;;;;0.70;0.60;;;21.50;99.90;;;;;;5091210;28;20190;-63
2023/06/25 06:41:28;;;;;;;0.52;0.52;;;21.60;99.90;;;;;;5091007;28;20095;-63
2023/06/25 06:44:09;;;;;;;0.47;0.32;;;21.40;99.90;;;;;;5090949;28;20047;-63
2023/06/25 06:46:35;;;;;;;0.60;0.50;;;22.00;99.90;;;;;;5091130;28;20048;-63
2023/06/25 06:49:00;;;;;;;0.70;0.50;;;21.70;99.90;;;;;;5091096;28;20423;-63
2023/06/25 06:51:26;;;;;;;0.73;0.60;;;21.90;99.90;;;;;;5090937;28;20201;-63
2023/06/25 06:53:52;;;;;;;0.38;0.38;;;21.90;99.90;;;;;;5090925;28;20044;-63
2023/06/25 06:56:17;;;;;;;0.65;0.60;;;21.80;99.90;;;;;;5090837;28;20712;-63
2023/06/25 06:58:43;;;;;;;0.20;0.20;;;22.30;99.90;;;;;;5091070;28;20054;-62
2023/06/25 07:01:09;;;;;;;0.80;0.47;;;22.20;99.90;;;;;;5091012;28;20052;-62
2023/06/25 07:03:34;;;;;;;0.13;0.13;;;22.20;99.90;;;;;;5090996;28;20502;-63
2023/06/25 07:06:00;;;;;;;0.57;0.57;;;22.40;99.90;;;;;;5090450;28;20052;-63
2023/06/25 07:08:26;;;;;;;0.55;0.40;;;22.60;99.90;;;;;;5090776;28;20052;-63
2023/06/25 07:10:51;;;;;;;0.57;0.43;;;22.80;99.90;;;;;;5093717;28;20385;-62
2023/06/25 07:13:17;;;;;;;0.25;0.25;;;22.80;99.90;;;;;;5093753;28;20130;-63
2023/06/25 07:15:43;;;;;;;0.08;0.08;;;23.00;99.90;;;;;;5094879;28;20051;-62
2023/06/25 07:18:08;;;;;;;0.17;0.17;;;23.10;99.90;;;;;;5094789;28;20384;-63
2023/06/25 07:20:34;;;;;;;0.65;0.65;;;23.30;99.90;;;;;;5094625;28;20044;-62
2023/06/25 07:23:00;;;;;;;2.63;0.80;;;23.10;99.90;;;;;;5094506;28;20078;-62
2023/06/25 07:25:25;;;;;;;0.50;0.50;;;23.50;99.90;;;;;;5094437;28;20087;-62
2023/06/25 07:27:51;;;;;;;0.50;0.50;;;23.50;99.90;;;;;;5094653;28;20483;-62
2023/06/25 07:30:17;;;;;;;1.08;0.45;;;23.70;99.90;;;;;;5094378;28;20090;-62
2023/06/25 07:32:42;;;;;;;0.85;0.77;;;23.70;99.90;;;;;;5094418;28;20044;-63
2023/06/25 07:35:08;;;;;;;0.28;0.28;;;23.60;99.90;;;;;;5094285;28;20048;-62
2023/06/25 07:37:34;;;;;;;0.43;0.43;;;23.70;99.90;;;;;;5094351;28;20054;-63
2023/06/25 07:40:00;;;;;;;0.38;0.38;;;23.90;99.90;;;;;;5094194;28;20131;-62
2023/06/25 07:42:26;;;;;;;0.75;0.65;;;23.90;99.90;;;;;;5094064;28;20130;-62
2023/06/25 07:44:51;;;;;;;1.33;1.08;;;23.90;99.90;;;;;;5094223;28;20586;-62
2023/06/25 07:47:17;;;;;;;0.50;0.50;;;24.00;99.90;;;;;;5094190;28;20055;-62
2023/06/25 07:49:43;;;;;;;0.63;0.60;;;23.70;99.90;;;;;;5094111;28;20122;-62
2023/06/25 07:52:08;;;;;;;2.00;1.05;;;24.20;99.90;;;;;;5094149;28;20127;-62
2023/06/25 07:54:34;;;;;;;0.60;0.60;;;24.30;99.90;;;;;;5094007;28;20047;-62
2023/06/25 07:57:00;;;;;;;1.10;1.00;;;24.30;99.90;;;;;;5093821;28;20051;-62
2023/06/25 07:59:25;;;;;;;0.63;0.63;;;24.60;99.90;;;;;;5094084;28;20563;-62
2023/06/25 08:01:51;;;;;;;0.82;0.82;;;24.40;99.90;;;;;;5093828;28;20129;-62
2023/06/25 08:04:17;;;;;;;0.70;0.35;;;24.90;99.90;;;;;;5093719;28;20102;-62
2023/06/25 08:06:42;;;;;;;0.47;0.35;;;24.80;99.90;;;;;;5093964;28;20052;-62
2023/06/25 08:09:08;;;;;;;0.90;0.52;;;25.10;99.90;;;;;;5093692;28;20059;-62
2023/06/25 08:11:34;;;;;;;0.60;0.60;;;25.30;99.90;;;;;;5093892;28;20047;-64
2023/06/25 08:14:00;;;;;;;0.50;0.50;;;25.00;99.90;;;;;;5093900;28;20044;-62
2023/06/25 08:16:28;;;;;;;2.75;1.00;;;25.40;99.90;;;;;;5093796;28;20086;-62
2023/06/25 08:18:53;;;;;;;0.52;0.52;;;25.30;99.90;;;;;;5093861;28;20044;-62
2023/06/25 08:21:19;;;;;;;0.93;0.90;;;25.70;99.90;;;;;;5092595;28;20079;-62
2023/06/25 08:23:45;;;;;;;1.83;0.75;;;25.40;99.90;;;;;;5093423;28;20100;-63
2023/06/25 08:26:12;;;;;;;0.22;0.22;;;25.70;99.90;;;;;;5091971;28;20040;-63
2023/06/25 08:28:39;;;;;;;0.60;0.60;;;25.80;99.90;;;;;;5092546;28;20094;-62
2023/06/25 08:31:05;;;;;;;0.22;0.22;;;25.90;99.90;;;;;;5093523;28;20067;-62
2023/06/25 08:33:31;;;;;;;0.30;0.30;;;26.10;99.90;;;;;;5093392;28;20040;-62
2023/06/25 08:35:57;;;;;;;0.50;0.50;;;25.90;99.90;;;;;;5093276;28;20345;-63
2023/06/25 08:38:24;;;;;;;0.50;0.50;;;26.30;99.90;;;;;;5093113;28;20055;-62
2023/06/25 08:40:52;;;;;;;0.95;0.95;;;26.50;99.90;;;;;;5093565;28;20048;-62
2023/06/25 08:43:19;;;;;;;0.73;0.73;;;26.50;99.90;;;;;;5093248;28;20458;-62
2023/06/25 08:45:46;;;;;;;1.30;1.10;;;26.60;99.90;;;;;;5093108;28;20380;-62
2023/06/25 08:48:16;;;;;;;0.57;0.50;;;26.60;99.90;;;;;;5093127;28;20051;-62
2023/06/25 08:50:45;;;;;;;0.30;0.30;;;26.90;99.90;;;;;;5093045;28;20044;-63
2023/06/25 08:53:11;;;;;;;0.52;0.52;;;26.80;99.90;;;;;;5092909;28;20124;-62
2023/06/25 08:55:37;;;;;;;1.10;1.08;;;27.00;99.90;;;;;;5093017;28;20487;-63
2023/06/25 08:58:03;;;;;;;1.60;0.95;;;27.00;99.90;;;;;;5092904;28;20101;-64
2023/06/25 09:00:29;;;;;;;0.57;0.50;;;27.10;99.90;;;;;;5092951;28;20044;-62
2023/06/25 09:02:55;;;;;;;0.60;0.60;;;27.30;99.90;;;;;;5091619;28;20484;-62
2023/06/25 09:05:25;;;;;;;0.55;0.55;;;27.30;99.90;;;;;;5092903;28;20060;-62
2023/06/25 09:07:51;;;;;;;1.00;0.63;;;27.10;99.90;;;;;;5092758;28;20084;-62
2023/06/25 09:10:18;;;;;;;1.00;0.90;;;27.20;99.90;;;;;;5092855;28;20567;-62
2023/06/25 09:12:45;;;;;;;0.90;0.90;;;27.50;99.90;;;;;;5092841;28;20043;-62
2023/06/25 09:15:11;;;;;;;0.43;0.43;;;27.70;99.90;;;;;;5092692;28;20468;-63
2023/06/25 09:17:37;;;;;;;0.32;0.32;;;27.40;99.90;;;;;;5092681;28;20076;-62
2023/06/25 09:20:04;;;;;;;0.60;0.60;;;27.60;99.90;;;;;;5092660;28;20488;-62
2023/06/25 09:22:30;;;;;;;1.17;1.17;;;28.00;99.90;;;;;;5092375;28;20051;-62
2023/06/25 09:24:56;;;;;;;0.75;0.70;;;27.90;99.90;;;;;;5092442;28;20067;-62
2023/06/25 09:27:22;;;;;;;0.40;0.40;;;27.80;99.90;;;;;;5092275;28;20460;-62
2023/06/25 09:29:48;;;;;;;0.80;0.80;;;28.20;99.90;;;;;;5092264;28;20048;-62
2023/06/25 09:32:17;;;;;;;0.22;0.22;;;28.20;99.90;;;;;;5091957;28;20075;-62
2023/06/25 09:34:46;;;;;;;0.50;0.50;;;28.10;99.90;;;;;;5092039;28;20040;-62
2023/06/25 09:37:12;;;;;;;0.70;0.65;;;28.20;99.90;;;;;;5092205;28;20040;-62
2023/06/25 09:39:38;;;;;;;0.38;0.28;;;28.30;99.90;;;;;;5092145;28;20407;-62
2023/06/25 09:42:05;;;;;;;0.47;0.47;;;28.30;99.90;;;;;;5092029;28;20043;-64
2023/06/25 09:44:35;;;;;;;0.30;0.30;;;28.20;99.90;;;;;;5090680;28;20043;-62
2023/06/25 09:47:05;;;;;;;0.82;0.82;;;28.60;99.90;;;;;;5091865;28;20047;-62
2023/06/25 09:49:32;;;;;;;0.43;0.43;;;28.30;99.90;;;;;;5091862;28;20078;-62
2023/06/25 09:52:06;;;;;;;0.85;0.80;;;28.50;99.90;;;;;;5091928;28;20054;-62
2023/06/25 09:54:33;;;;;;;0.85;0.85;;;28.80;99.90;;;;;;5091868;28;20044;-62
2023/06/25 09:57:01;;;;;;;0.30;0.30;;;28.80;99.90;;;;;;5091815;28;20046;-61
2023/06/25 09:59:27;;;;;;;0.28;0.28;;;28.60;99.90;;;;;;5091828;28;20050;-62
2023/06/25 10:01:53;;;;;;;0.70;0.70;;;28.90;99.90;;;;;;5091728;28;20119;-63
2023/06/25 10:04:19;;;;;;;0.55;0.55;;;29.50;99.90;;;;;;5091308;28;20149;-62
2023/06/25 10:06:46;;;;;;;0.55;0.55;;;29.40;99.90;;;;;;5091887;28;20799;-62
2023/06/25 10:09:14;;;;;;;0.40;0.40;;;29.10;99.90;;;;;;5091825;28;20372;-61
2023/06/25 10:11:50;;;;;;;0.22;0.22;;;29.10;99.90;;;;;;5091425;28;20566;-62
2023/06/25 10:14:15;;;;;;;0.50;0.50;;;29.90;99.90;;;;;;5091418;28;20586;-62
2023/06/25 10:16:50;;;;;;;0.70;0.70;;;29.70;99.90;;;;;;5090270;28;20048;-62
2023/06/25 10:19:27;;;;;;;1.30;0.95;;;29.70;99.90;;;;;;5091506;28;20068;-61
2023/06/25 10:22:00;;;;;;;0.28;0.28;;;29.40;99.90;;;;;;5091443;28;20062;-62
2023/06/25 10:24:36;;;;;;;0.47;0.47;;;29.60;99.90;;;;;;5091235;28;20060;-62
2023/06/25 10:27:01;;;;;;;0.82;0.73;;;29.70;99.90;;;;;;5091104;28;20048;-62
2023/06/25 10:29:38;;;;;;;0.85;0.85;;;29.70;99.90;;;;;;5091325;28;20104;-62
2023/06/25 10:32:05;;;;;;;0.68;0.65;;;29.80;99.90;;;;;;5091331;28;20055;-62
2023/06/25 10:34:39;;;;;;;0.17;0.17;;;29.90;99.90;;;;;;5091030;28;20499;-62
2023/06/25 10:37:06;;;;;;;0.80;0.40;;;29.80;99.90;;;;;;5091167;28;20040;-62
2023/06/25 10:39:41;;;;;;;0.40;0.30;;;29.90;99.90;;;;;;5089623;28;20470;-62
2023/06/25 10:42:08;;;;;;;1.13;0.60;;;30.10;99.90;;;;;;5091097;28;20127;-62
2023/06/25 10:44:34;;;;;;;1.17;0.40;;;29.80;99.90;;;;;;5092071;28;20108;-62
2023/06/25 10:47:08;;;;;;;0.50;0.45;;;29.80;99.90;;;;;;5095304;28;20056;-62
2023/06/25 10:49:35;;;;;;;0.75;0.52;;;30.50;99.90;;;;;;5095255;28;20412;-62
2023/06/25 10:52:02;;;;;;;0.32;0.32;;;30.40;99.90;;;;;;5095075;28;20139;-62
2023/06/25 10:54:27;;;;;;;0.55;0.47;;;30.60;99.90;;;;;;5095105;28;20526;-62
2023/06/25 10:57:10;;;;;;;0.35;0.35;;;30.30;99.90;;;;;;5095275;28;20099;-62
2023/06/25 10:59:40;;;;;;;1.25;0.40;;;30.60;99.90;;;;;;5095102;28;20534;-62
2023/06/25 11:02:12;;;;;;;0.80;0.80;;;30.60;99.90;;;;;;5095037;28;20142;-62
2023/06/25 11:04:38;;;;;;;0.77;0.70;;;30.70;99.90;;;;;;5094815;28;20060;-62
2023/06/25 11:07:04;;;;;;;0.63;0.63;;;30.60;99.90;;;;;;5095056;28;20392;-62
2023/06/25 11:09:30;;;;;;;1.08;0.63;;;30.60;99.90;;;;;;5094939;28;20136;-62
2023/06/25 11:11:55;;;;;;;0.40;0.32;;;30.80;99.90;;;;;;5094916;28;20492;-65
2023/06/25 11:14:23;;;;;;;0.20;0.20;;;30.90;99.90;;;;;;5094801;28;20046;-62
2023/06/25 11:16:48;;;;;;;0.60;0.43;;;30.90;99.90;;;;;;5094704;28;20048;-61
2023/06/25 11:19:14;;;;;;;0.30;0.30;;;31.00;99.90;;;;;;5094568;28;20384;-62
2023/06/25 11:21:40;;;;;;;0.15;0.15;;;31.10;99.90;;;;;;5094767;28;20566;-62
2023/06/25 11:24:09;;;;;;;0.73;0.60;;;30.90;99.90;;;;;;5094630;28;20583;-62
2023/06/25 11:26:43;;;;;;;1.85;0.65;;;30.90;99.90;;;;;;5094458;28;20511;-62
2023/06/25 11:29:10;;;;;;;0.30;0.30;;;31.00;99.90;;;;;;5094559;28;20052;-62
2023/06/25 11:31:52;;;;;;;0.70;0.70;;;30.90;99.90;;;;;;5094423;28;20376;-62
2023/06/25 11:34:25;;;;;;;0.20;0.20;;;30.80;99.90;;;;;;5094658;28;20367;-63
2023/06/25 11:36:51;;;;;;;0.68;0.68;;;31.40;99.90;;;;;;5094457;28;20056;-63
2023/06/25 11:39:17;;;;;;;0.32;0.32;;;31.20;99.90;;;;;;5094491;28;20412;-62
2023/06/25 11:41:44;;;;;;;0.38;0.38;;;31.30;99.90;;;;;;5094586;28;20052;-62
2023/06/25 11:44:20;;;;;;;0.40;0.40;;;31.30;99.90;;;;;;5094247;28;20066;-62
2023/06/25 11:46:51;;;;;;;0.80;0.80;;;31.30;99.90;;;;;;5094246;28;20048;-62
2023/06/25 11:49:18;;;;;;;0.28;0.28;;;31.90;99.90;;;;;;5094199;28;20048;-62
2023/06/25 11:51:44;;;;;;;0.25;0.25;;;31.40;99.90;;;;;;5094237;28;20054;-62
2023/06/25 11:54:10;;;;;;;0.35;0.35;;;31.60;99.90;;;;;;5092714;28;20050;-62
2023/06/25 11:56:36;;;;;;;0.38;0.38;;;31.40;99.90;;;;;;5093893;28;20437;-62
2023/06/25 11:59:02;;;;;;;0.35;0.35;;;31.30;99.90;;;;;;5093910;28;20050;-62
2023/06/25 12:01:29;;;;;;;1.45;0.45;;;31.40;99.90;;;;;;5094028;28;20044;-62
2023/06/25 12:03:55;;;;;;;0.17;0.17;;;31.60;99.90;;;;;;5094301;28;20084;-62
2023/06/25 12:06:22;;;;;;;0.10;0.10;;;31.80;99.90;;;;;;5093825;28;20429;-64
2023/06/25 12:08:48;;;;;;;0.63;0.60;;;31.90;99.90;;;;;;5093783;28;20048;-62
2023/06/25 12:11:14;;;;;;;0.40;0.40;;;32.00;99.90;;;;;;5093591;28;20048;-62
2023/06/25 12:13:39;;;;;;;0.50;0.50;;;31.90;99.90;;;;;;5093805;28;20114;-64
2023/06/25 12:16:05;;;;;;;0.30;0.30;;;32.00;99.90;;;;;;5093732;28;20089;-62
2023/06/25 12:18:31;;;;;;;0.38;0.38;;;31.80;99.90;;;;;;5093657;28;20075;-61
2023/06/25 12:20:56;;;;;;;0.40;0.40;;;31.60;99.90;;;;;;5093510;28;20052;-62
2023/06/25 12:23:22;;;;;;;0.10;0.10;;;30.70;99.90;;;;;;5093500;28;20051;-62
2023/06/25 12:25:48;;;;;;;0.40;0.40;;;30.50;99.90;;;;;;5093205;28;20559;-62
2023/06/25 12:28:13;;;;;;;0.25;0.20;;;30.50;99.90;;;;;;5093521;28;20108;-61
2023/06/25 12:30:39;;;;;;;0.25;0.25;;;30.40;99.90;;;;;;5093484;28;20606;-62
2023/06/25 12:33:05;;;;;;;0.52;0.52;;;30.60;99.90;;;;;;5093292;28;20055;-62
2023/06/25 12:35:31;;;;;;;0.52;0.52;;;31.10;99.90;;;;;;5093373;28;20100;-62
2023/06/25 12:37:56;;;;;;;0.13;0.13;;;31.70;99.90;;;;;;5093212;28;20127;-62
2023/06/25 12:40:22;;;;;;;0.35;0.28;;;31.60;99.90;;;;;;5092959;28;20059;-62
2023/06/25 12:42:48;;;;;;;0.20;0.20;;;31.80;99.90;;;;;;5093204;28;20052;-61
2023/06/25 12:45:13;;;;;;;0.52;0.40;;;32.30;99.90;;;;;;5093078;28;20044;-62